sensor_id;sensor_type;location;lat;lon;timestamp;temperature;humidity
43249;DHT22;29216;51.248;6.808;2022-11-30T00:00:33;7.70;99.90
43249;DHT22;29216;51.248;6.808;2022-11-30T00:02:58;7.80;99.90
43249;DHT22;29216;51.248;6.808;2022-11-30T00:05:24;7.80;99.90
43249;DHT22;29216;51.248;6.808;2022-11-30T00:07:50;7.80;99.90
43249;DHT22;29216;51.248;6.808;2022-11-30T00:10:16;7.80;99.90
43249;DHT22;29216;51.248;6.808;2022-11-30T00:12:42;7.90;99.90
43249;DHT22;29216;51.248;6.808;2022-11-30T00:15:09;7.80;99.90
43249;DHT22;29216;51.248;6.808;2022-11-30T00:17:37;7.80;99.90
43249;DHT22;29216;51.248;6.808;2022-11-30T00:20:03;7.80;99.90
43249;DHT22;29216;51.248;6.808;2022-11-30T00:22:29;7.80;99.90
43249;DHT22;29216;51.248;6.808;2022-11-30T00:24:55;7.90;99.90
43249;DHT22;29216;51.248;6.808;2022-11-30T00:27:26;7.90;99.90
43249;DHT22;29216;51.248;6.808;2022-11-30T00:29:52;7.80;99.90
43249;DHT22;29216;51.248;6.808;2022-11-30T00:32:17;7.80;99.90
43249;DHT22;29216;51.248;6.808;2022-11-30T00:34:43;7.80;99.90
43249;DHT22;29216;51.248;6.808;2022-11-30T00:37:09;7.70;99.90
43249;DHT22;29216;51.248;6.808;2022-11-30T00:39:35;7.80;99.90
43249;DHT22;29216;51.248;6.808;2022-11-30T00:42:00;7.70;99.90
43249;DHT22;29216;51.248;6.808;2022-11-30T00:44:26;7.70;99.90
43249;DHT22;29216;51.248;6.808;2022-11-30T00:46:52;7.70;99.90
43249;DHT22;29216;51.248;6.808;2022-11-30T00:49:17;7.70;99.90
43249;DHT22;29216;51.248;6.808;2022-11-30T00:51:43;7.70;99.90
43249;DHT22;29216;51.248;6.808;2022-11-30T00:54:09;7.70;99.90
43249;DHT22;29216;51.248;6.808;2022-11-30T00:56:35;7.70;99.90
43249;DHT22;29216;51.248;6.808;2022-11-30T00:59:00;7.70;99.90
43249;DHT22;29216;51.248;6.808;2022-11-30T01:01:26;7.70;99.90
43249;DHT22;29216;51.248;6.808;2022-11-30T01:03:52;7.70;99.90
43249;DHT22;29216;51.248;6.808;2022-11-30T01:06:18;7.60;99.90
43249;DHT22;29216;51.248;6.808;2022-11-30T01:08:44;7.70;99.90
43249;DHT22;29216;51.248;6.808;2022-11-30T01:11:19;7.70;99.90
43249;DHT22;29216;51.248;6.808;2022-11-30T01:13:48;7.70;99.90
43249;DHT22;29216;51.248;6.808;2022-11-30T01:16:17;7.70;99.90
43249;DHT22;29216;51.248;6.808;2022-11-30T01:18:44;7.80;99.90
43249;DHT22;29216;51.248;6.808;2022-11-30T01:21:12;7.80;99.90
43249;DHT22;29216;51.248;6.808;2022-11-30T01:23:39;7.90;99.90
43249;DHT22;29216;51.248;6.808;2022-11-30T01:26:06;7.90;99.90
43249;DHT22;29216;51.248;6.808;2022-11-30T01:28:32;7.90;99.90
43249;DHT22;29216;51.248;6.808;2022-11-30T01:31:05;7.80;99.90
43249;DHT22;29216;51.248;6.808;2022-11-30T01:33:32;7.80;99.90
43249;DHT22;29216;51.248;6.808;2022-11-30T01:38:33;7.80;99.90
43249;DHT22;29216;51.248;6.808;2022-11-30T01:41:00;7.80;99.90
43249;DHT22;29216;51.248;6.808;2022-11-30T01:43:37;7.80;99.90
43249;DHT22;29216;51.248;6.808;2022-11-30T01:46:04;7.80;99.90
43249;DHT22;29216;51.248;6.808;2022-11-30T01:48:30;7.80;99.90
43249;DHT22;29216;51.248;6.808;2022-11-30T01:50:56;7.80;99.90
43249;DHT22;29216;51.248;6.808;2022-11-30T01:53:27;7.70;99.90
43249;DHT22;29216;51.248;6.808;2022-11-30T01:55:53;7.80;99.90
43249;DHT22;29216;51.248;6.808;2022-11-30T01:58:27;7.80;99.90
43249;DHT22;29216;51.248;6.808;2022-11-30T02:00:56;7.90;99.90
43249;DHT22;29216;51.248;6.808;2022-11-30T02:03:31;8.00;99.90
43249;DHT22;29216;51.248;6.808;2022-11-30T02:05:59;8.00;99.90
43249;DHT22;29216;51.248;6.808;2022-11-30T02:08:26;8.00;99.90
43249;DHT22;29216;51.248;6.808;2022-11-30T02:10:54;8.00;99.90
43249;DHT22;29216;51.248;6.808;2022-11-30T02:17:22;8.00;99.90
43249;DHT22;29216;51.248;6.808;2022-11-30T02:30:17;8.00;99.90
43249;DHT22;29216;51.248;6.808;2022-11-30T02:32:54;8.00;99.90
43249;DHT22;29216;51.248;6.808;2022-11-30T02:35:24;8.00;99.90
43249;DHT22;29216;51.248;6.808;2022-11-30T02:37:52;7.90;99.90
43249;DHT22;29216;51.248;6.808;2022-11-30T02:40:19;8.00;99.90
43249;DHT22;29216;51.248;6.808;2022-11-30T02:42:46;8.00;99.90
43249;DHT22;29216;51.248;6.808;2022-11-30T02:45:14;8.00;99.90
43249;DHT22;29216;51.248;6.808;2022-11-30T02:50:18;8.10;99.90
43249;DHT22;29216;51.248;6.808;2022-11-30T02:52:47;8.00;99.90
43249;DHT22;29216;51.248;6.808;2022-11-30T02:55:15;8.10;99.90
43249;DHT22;29216;51.248;6.808;2022-11-30T02:57:42;8.10;99.90
43249;DHT22;29216;51.248;6.808;2022-11-30T03:00:09;8.10;99.90
43249;DHT22;29216;51.248;6.808;2022-11-30T03:02:38;8.10;99.90
43249;DHT22;29216;51.248;6.808;2022-11-30T03:05:05;8.10;99.90
43249;DHT22;29216;51.248;6.808;2022-11-30T03:07:31;8.20;99.90
43249;DHT22;29216;51.248;6.808;2022-11-30T03:09:57;8.30;99.90
43249;DHT22;29216;51.248;6.808;2022-11-30T03:12:24;8.30;99.90
43249;DHT22;29216;51.248;6.808;2022-11-30T03:14:50;8.30;99.90
43249;DHT22;29216;51.248;6.808;2022-11-30T03:17:16;8.30;99.90
43249;DHT22;29216;51.248;6.808;2022-11-30T03:19:41;8.30;99.90
43249;DHT22;29216;51.248;6.808;2022-11-30T03:22:07;8.20;99.90
43249;DHT22;29216;51.248;6.808;2022-11-30T03:24:33;8.30;99.90
43249;DHT22;29216;51.248;6.808;2022-11-30T03:26:59;8.30;99.90
43249;DHT22;29216;51.248;6.808;2022-11-30T03:29:24;8.30;99.90
43249;DHT22;29216;51.248;6.808;2022-11-30T03:31:50;8.20;99.90
43249;DHT22;29216;51.248;6.808;2022-11-30T03:34:16;8.20;99.90
43249;DHT22;29216;51.248;6.808;2022-11-30T03:36:41;8.10;99.90
43249;DHT22;29216;51.248;6.808;2022-11-30T03:39:07;8.10;99.90
43249;DHT22;29216;51.248;6.808;2022-11-30T03:41:34;8.10;99.90
43249;DHT22;29216;51.248;6.808;2022-11-30T03:44:00;8.10;99.90
43249;DHT22;29216;51.248;6.808;2022-11-30T03:46:25;8.10;99.90
43249;DHT22;29216;51.248;6.808;2022-11-30T03:48:52;8.10;99.90
43249;DHT22;29216;51.248;6.808;2022-11-30T03:51:18;8.10;99.90
43249;DHT22;29216;51.248;6.808;2022-11-30T03:53:43;8.10;99.90
43249;DHT22;29216;51.248;6.808;2022-11-30T03:56:10;8.10;99.90
43249;DHT22;29216;51.248;6.808;2022-11-30T03:58:36;8.00;99.90
43249;DHT22;29216;51.248;6.808;2022-11-30T04:01:09;8.10;99.90
43249;DHT22;29216;51.248;6.808;2022-11-30T04:03:37;8.00;99.90
43249;DHT22;29216;51.248;6.808;2022-11-30T04:06:04;8.10;99.90
43249;DHT22;29216;51.248;6.808;2022-11-30T04:08:30;8.10;99.90
43249;DHT22;29216;51.248;6.808;2022-11-30T04:10:58;8.00;99.90
43249;DHT22;29216;51.248;6.808;2022-11-30T04:13:24;8.00;99.90
43249;DHT22;29216;51.248;6.808;2022-11-30T04:15:51;8.00;99.90
43249;DHT22;29216;51.248;6.808;2022-11-30T04:18:18;8.00;99.90
43249;DHT22;29216;51.248;6.808;2022-11-30T04:20:44;8.00;99.90
43249;DHT22;29216;51.248;6.808;2022-11-30T04:23:11;7.90;99.90
43249;DHT22;29216;51.248;6.808;2022-11-30T04:25:40;7.90;99.90
43249;DHT22;29216;51.248;6.808;2022-11-30T04:28:07;7.80;99.90
43249;DHT22;29216;51.248;6.808;2022-11-30T04:30:33;7.70;99.90
43249;DHT22;29216;51.248;6.808;2022-11-30T04:33:00;7.80;99.90
43249;DHT22;29216;51.248;6.808;2022-11-30T04:35:26;7.80;99.90
43249;DHT22;29216;51.248;6.808;2022-11-30T04:37:51;7.70;99.90
43249;DHT22;29216;51.248;6.808;2022-11-30T04:40:17;7.70;99.90
43249;DHT22;29216;51.248;6.808;2022-11-30T04:42:43;7.70;99.90
43249;DHT22;29216;51.248;6.808;2022-11-30T04:45:09;7.70;99.90
43249;DHT22;29216;51.248;6.808;2022-11-30T04:47:35;7.70;99.90
43249;DHT22;29216;51.248;6.808;2022-11-30T04:50:00;7.70;99.90
43249;DHT22;29216;51.248;6.808;2022-11-30T04:52:26;7.70;99.90
43249;DHT22;29216;51.248;6.808;2022-11-30T04:54:52;7.70;99.90
43249;DHT22;29216;51.248;6.808;2022-11-30T04:57:18;7.70;99.90
43249;DHT22;29216;51.248;6.808;2022-11-30T04:59:43;7.70;99.90
43249;DHT22;29216;51.248;6.808;2022-11-30T05:02:09;7.70;99.90
43249;DHT22;29216;51.248;6.808;2022-11-30T05:04:35;7.60;99.90
43249;DHT22;29216;51.248;6.808;2022-11-30T05:07:01;7.60;99.90
43249;DHT22;29216;51.248;6.808;2022-11-30T05:09:26;7.70;99.90
43249;DHT22;29216;51.248;6.808;2022-11-30T05:11:52;7.60;99.90
43249;DHT22;29216;51.248;6.808;2022-11-30T05:14:18;7.60;99.90
43249;DHT22;29216;51.248;6.808;2022-11-30T05:16:46;7.60;99.90
43249;DHT22;29216;51.248;6.808;2022-11-30T05:19:12;7.60;99.90
43249;DHT22;29216;51.248;6.808;2022-11-30T05:21:39;7.50;99.90
43249;DHT22;29216;51.248;6.808;2022-11-30T05:24:05;7.50;99.90
43249;DHT22;29216;51.248;6.808;2022-11-30T05:26:31;7.50;99.90
43249;DHT22;29216;51.248;6.808;2022-11-30T05:28:56;7.50;99.90
43249;DHT22;29216;51.248;6.808;2022-11-30T05:31:22;7.40;99.90
43249;DHT22;29216;51.248;6.808;2022-11-30T05:33:52;7.40;99.90
43249;DHT22;29216;51.248;6.808;2022-11-30T05:36:18;7.40;99.90
43249;DHT22;29216;51.248;6.808;2022-11-30T05:38:45;7.40;99.90
43249;DHT22;29216;51.248;6.808;2022-11-30T05:41:11;7.40;99.90
43249;DHT22;29216;51.248;6.808;2022-11-30T05:43:37;7.40;99.90
43249;DHT22;29216;51.248;6.808;2022-11-30T05:46:05;7.40;99.90
43249;DHT22;29216;51.248;6.808;2022-11-30T05:48:30;7.40;99.90
43249;DHT22;29216;51.248;6.808;2022-11-30T05:51:08;7.30;99.90
43249;DHT22;29216;51.248;6.808;2022-11-30T05:53:34;7.20;99.90
43249;DHT22;29216;51.248;6.808;2022-11-30T05:56:04;7.10;99.90
43249;DHT22;29216;51.248;6.808;2022-11-30T05:58:31;7.00;99.90
43249;DHT22;29216;51.248;6.808;2022-11-30T06:00:57;6.80;99.90
43249;DHT22;29216;51.248;6.808;2022-11-30T06:03:22;6.80;99.90
43249;DHT22;29216;51.248;6.808;2022-11-30T06:05:50;6.80;99.90
43249;DHT22;29216;51.248;6.808;2022-11-30T06:08:16;6.80;99.90
43249;DHT22;29216;51.248;6.808;2022-11-30T06:10:42;6.80;99.90
43249;DHT22;29216;51.248;6.808;2022-11-30T06:13:08;6.70;99.90
43249;DHT22;29216;51.248;6.808;2022-11-30T06:15:36;6.60;99.90
43249;DHT22;29216;51.248;6.808;2022-11-30T06:18:02;6.50;99.90
43249;DHT22;29216;51.248;6.808;2022-11-30T06:20:28;6.50;99.90
43249;DHT22;29216;51.248;6.808;2022-11-30T06:22:54;6.50;99.90
43249;DHT22;29216;51.248;6.808;2022-11-30T06:25:20;6.50;99.90
43249;DHT22;29216;51.248;6.808;2022-11-30T06:27:45;6.40;99.90
43249;DHT22;29216;51.248;6.808;2022-11-30T06:30:11;6.50;99.90
43249;DHT22;29216;51.248;6.808;2022-11-30T06:32:37;6.50;99.90
43249;DHT22;29216;51.248;6.808;2022-11-30T06:35:03;6.60;99.90
43249;DHT22;29216;51.248;6.808;2022-11-30T06:37:32;6.70;99.90
43249;DHT22;29216;51.248;6.808;2022-11-30T06:39:57;6.80;99.90
43249;DHT22;29216;51.248;6.808;2022-11-30T06:42:23;6.90;99.90
43249;DHT22;29216;51.248;6.808;2022-11-30T06:44:49;6.90;99.90
43249;DHT22;29216;51.248;6.808;2022-11-30T06:47:15;6.90;99.90
43249;DHT22;29216;51.248;6.808;2022-11-30T06:49:40;7.00;99.90
43249;DHT22;29216;51.248;6.808;2022-11-30T06:52:06;7.00;99.90
43249;DHT22;29216;51.248;6.808;2022-11-30T06:54:32;7.00;99.90
43249;DHT22;29216;51.248;6.808;2022-11-30T06:56:57;6.90;99.90
43249;DHT22;29216;51.248;6.808;2022-11-30T06:59:23;6.80;99.90
43249;DHT22;29216;51.248;6.808;2022-11-30T07:01:49;7.00;99.90
43249;DHT22;29216;51.248;6.808;2022-11-30T07:04:14;7.00;99.90
43249;DHT22;29216;51.248;6.808;2022-11-30T07:06:40;7.00;99.90
43249;DHT22;29216;51.248;6.808;2022-11-30T07:09:06;7.00;99.90
43249;DHT22;29216;51.248;6.808;2022-11-30T07:11:31;7.00;99.90
43249;DHT22;29216;51.248;6.808;2022-11-30T07:13:57;7.10;99.90
43249;DHT22;29216;51.248;6.808;2022-11-30T07:16:23;7.10;99.90
43249;DHT22;29216;51.248;6.808;2022-11-30T07:18:49;7.20;99.90
43249;DHT22;29216;51.248;6.808;2022-11-30T07:21:14;7.20;99.90
43249;DHT22;29216;51.248;6.808;2022-11-30T07:23:40;7.20;99.90
43249;DHT22;29216;51.248;6.808;2022-11-30T07:26:24;7.30;99.90
43249;DHT22;29216;51.248;6.808;2022-11-30T07:28:51;7.30;99.90
43249;DHT22;29216;51.248;6.808;2022-11-30T07:31:27;7.30;99.90
43249;DHT22;29216;51.248;6.808;2022-11-30T07:33:54;7.40;99.90
43249;DHT22;29216;51.248;6.808;2022-11-30T07:36:21;7.50;99.90
43249;DHT22;29216;51.248;6.808;2022-11-30T07:38:48;7.50;99.90
43249;DHT22;29216;51.248;6.808;2022-11-30T07:41:14;7.50;99.90
43249;DHT22;29216;51.248;6.808;2022-11-30T07:43:40;7.60;99.90
43249;DHT22;29216;51.248;6.808;2022-11-30T07:46:06;7.60;99.90
43249;DHT22;29216;51.248;6.808;2022-11-30T07:48:32;7.70;99.90
43249;DHT22;29216;51.248;6.808;2022-11-30T07:51:18;7.70;99.90
43249;DHT22;29216;51.248;6.808;2022-11-30T07:53:44;7.70;99.90
43249;DHT22;29216;51.248;6.808;2022-11-30T07:56:12;7.70;99.90
43249;DHT22;29216;51.248;6.808;2022-11-30T07:58:39;7.70;99.90
43249;DHT22;29216;51.248;6.808;2022-11-30T08:01:11;7.60;99.90
43249;DHT22;29216;51.248;6.808;2022-11-30T08:03:37;7.60;99.90
43249;DHT22;29216;51.248;6.808;2022-11-30T08:06:06;7.60;99.90
43249;DHT22;29216;51.248;6.808;2022-11-30T08:08:37;7.70;99.90
43249;DHT22;29216;51.248;6.808;2022-11-30T08:11:04;7.70;99.90
43249;DHT22;29216;51.248;6.808;2022-11-30T08:13:30;7.70;99.90
43249;DHT22;29216;51.248;6.808;2022-11-30T08:16:02;7.70;99.90
43249;DHT22;29216;51.248;6.808;2022-11-30T08:18:28;7.70;99.90
43249;DHT22;29216;51.248;6.808;2022-11-30T08:20:58;7.70;99.90
43249;DHT22;29216;51.248;6.808;2022-11-30T08:23:28;7.70;99.90
43249;DHT22;29216;51.248;6.808;2022-11-30T08:25:54;7.70;99.90
43249;DHT22;29216;51.248;6.808;2022-11-30T08:28:20;7.70;99.90
43249;DHT22;29216;51.248;6.808;2022-11-30T08:30:46;7.70;99.90
43249;DHT22;29216;51.248;6.808;2022-11-30T08:33:12;7.70;99.90
43249;DHT22;29216;51.248;6.808;2022-11-30T08:35:38;7.70;99.90
43249;DHT22;29216;51.248;6.808;2022-11-30T08:38:04;7.80;99.90
43249;DHT22;29216;51.248;6.808;2022-11-30T08:40:29;7.80;99.90
43249;DHT22;29216;51.248;6.808;2022-11-30T08:42:57;7.80;99.90
43249;DHT22;29216;51.248;6.808;2022-11-30T08:45:23;7.70;99.90
43249;DHT22;29216;51.248;6.808;2022-11-30T08:47:49;7.80;99.90
43249;DHT22;29216;51.248;6.808;2022-11-30T08:50:18;7.90;99.90
43249;DHT22;29216;51.248;6.808;2022-11-30T08:52:43;7.90;99.90
43249;DHT22;29216;51.248;6.808;2022-11-30T08:55:09;7.80;99.90
43249;DHT22;29216;51.248;6.808;2022-11-30T08:57:35;7.80;99.90
43249;DHT22;29216;51.248;6.808;2022-11-30T09:00:01;7.70;99.90
43249;DHT22;29216;51.248;6.808;2022-11-30T09:02:26;7.80;99.90
43249;DHT22;29216;51.248;6.808;2022-11-30T09:04:52;7.80;99.90
43249;DHT22;29216;51.248;6.808;2022-11-30T09:07:18;7.80;99.90
43249;DHT22;29216;51.248;6.808;2022-11-30T09:09:44;7.80;99.90
43249;DHT22;29216;51.248;6.808;2022-11-30T09:12:10;7.80;99.90
43249;DHT22;29216;51.248;6.808;2022-11-30T09:14:36;7.80;99.90
43249;DHT22;29216;51.248;6.808;2022-11-30T09:17:02;7.80;99.90
43249;DHT22;29216;51.248;6.808;2022-11-30T09:19:28;7.90;99.90
43249;DHT22;29216;51.248;6.808;2022-11-30T09:21:53;7.90;99.90
43249;DHT22;29216;51.248;6.808;2022-11-30T09:24:19;7.90;99.90
43249;DHT22;29216;51.248;6.808;2022-11-30T09:26:45;7.80;99.90
43249;DHT22;29216;51.248;6.808;2022-11-30T09:29:11;7.70;99.90
43249;DHT22;29216;51.248;6.808;2022-11-30T09:31:37;7.70;99.90
43249;DHT22;29216;51.248;6.808;2022-11-30T09:34:02;7.70;99.90
43249;DHT22;29216;51.248;6.808;2022-11-30T09:36:28;7.70;99.90
43249;DHT22;29216;51.248;6.808;2022-11-30T09:38:55;7.60;99.90
43249;DHT22;29216;51.248;6.808;2022-11-30T09:47:07;7.80;99.90
43249;DHT22;29216;51.248;6.808;2022-11-30T09:49:42;7.80;99.90
43249;DHT22;29216;51.248;6.808;2022-11-30T09:52:45;7.80;99.90
43249;DHT22;29216;51.248;6.808;2022-11-30T09:55:35;7.80;99.90
43249;DHT22;29216;51.248;6.808;2022-11-30T09:58:09;7.80;99.90
43249;DHT22;29216;51.248;6.808;2022-11-30T10:00:38;7.80;99.90
43249;DHT22;29216;51.248;6.808;2022-11-30T10:03:05;7.80;99.90
43249;DHT22;29216;51.248;6.808;2022-11-30T10:09:07;7.80;99.90
43249;DHT22;29216;51.248;6.808;2022-11-30T10:12:08;7.80;99.90
43249;DHT22;29216;51.248;6.808;2022-11-30T10:22:51;7.80;99.90
43249;DHT22;29216;51.248;6.808;2022-11-30T10:25:24;7.80;99.90
43249;DHT22;29216;51.248;6.808;2022-11-30T10:30:43;7.80;99.90
43249;DHT22;29216;51.248;6.808;2022-11-30T10:35:59;7.80;99.90
43249;DHT22;29216;51.248;6.808;2022-11-30T10:38:42;7.80;99.90
43249;DHT22;29216;51.248;6.808;2022-11-30T10:41:10;7.90;99.90
43249;DHT22;29216;51.248;6.808;2022-11-30T10:47:19;7.90;99.90
43249;DHT22;29216;51.248;6.808;2022-11-30T10:49:51;7.90;99.90
43249;DHT22;29216;51.248;6.808;2022-11-30T10:52:27;8.00;99.90
43249;DHT22;29216;51.248;6.808;2022-11-30T10:54:55;8.00;99.90
43249;DHT22;29216;51.248;6.808;2022-11-30T10:57:23;8.00;99.90
43249;DHT22;29216;51.248;6.808;2022-11-30T10:59:53;8.00;99.90
43249;DHT22;29216;51.248;6.808;2022-11-30T11:05:28;8.10;99.90
43249;DHT22;29216;51.248;6.808;2022-11-30T11:07:56;8.10;99.90
43249;DHT22;29216;51.248;6.808;2022-11-30T11:10:45;8.00;99.90
43249;DHT22;29216;51.248;6.808;2022-11-30T11:15:56;7.90;99.90
43249;DHT22;29216;51.248;6.808;2022-11-30T11:18:25;7.80;99.90
43249;DHT22;29216;51.248;6.808;2022-11-30T11:21:05;7.80;99.90
43249;DHT22;29216;51.248;6.808;2022-11-30T11:23:42;7.80;99.90
43249;DHT22;29216;51.248;6.808;2022-11-30T11:28:49;7.70;99.90
43249;DHT22;29216;51.248;6.808;2022-11-30T11:31:40;7.80;99.90
43249;DHT22;29216;51.248;6.808;2022-11-30T11:34:35;7.90;99.90
43249;DHT22;29216;51.248;6.808;2022-11-30T11:37:31;7.90;99.90
43249;DHT22;29216;51.248;6.808;2022-11-30T11:42:41;7.80;99.90
43249;DHT22;29216;51.248;6.808;2022-11-30T11:45:22;7.90;99.90
43249;DHT22;29216;51.248;6.808;2022-11-30T11:48:05;7.90;99.90
43249;DHT22;29216;51.248;6.808;2022-11-30T11:50:35;7.80;99.90
43249;DHT22;29216;51.248;6.808;2022-11-30T11:53:21;7.80;99.90
43249;DHT22;29216;51.248;6.808;2022-11-30T11:56:09;7.80;99.90
43249;DHT22;29216;51.248;6.808;2022-11-30T11:59:12;7.70;99.90
43249;DHT22;29216;51.248;6.808;2022-11-30T12:04:45;7.70;99.90
43249;DHT22;29216;51.248;6.808;2022-11-30T12:07:23;7.80;99.90
43249;DHT22;29216;51.248;6.808;2022-11-30T12:10:02;8.00;99.90
43249;DHT22;29216;51.248;6.808;2022-11-30T12:12:29;8.00;99.90
43249;DHT22;29216;51.248;6.808;2022-11-30T12:14:55;8.20;99.90
43249;DHT22;29216;51.248;6.808;2022-11-30T12:25:29;8.40;99.90
43249;DHT22;29216;51.248;6.808;2022-11-30T12:31:15;8.50;99.90
43249;DHT22;29216;51.248;6.808;2022-11-30T12:33:59;8.50;99.90
43249;DHT22;29216;51.248;6.808;2022-11-30T13:05:55;8.40;99.90
43249;DHT22;29216;51.248;6.808;2022-11-30T13:08:33;8.50;99.90
43249;DHT22;29216;51.248;6.808;2022-11-30T13:11:17;8.50;99.90
43249;DHT22;29216;51.248;6.808;2022-11-30T13:13:50;8.40;99.90
43249;DHT22;29216;51.248;6.808;2022-11-30T13:16:17;8.50;99.90
43249;DHT22;29216;51.248;6.808;2022-11-30T13:18:45;8.40;99.90
43249;DHT22;29216;51.248;6.808;2022-11-30T13:21:36;8.40;99.90
43249;DHT22;29216;51.248;6.808;2022-11-30T13:24:15;8.50;99.90
43249;DHT22;29216;51.248;6.808;2022-11-30T13:32:14;8.30;99.90
43249;DHT22;29216;51.248;6.808;2022-11-30T13:34:41;8.20;99.90
43249;DHT22;29216;51.248;6.808;2022-11-30T13:37:10;8.30;99.90
43249;DHT22;29216;51.248;6.808;2022-11-30T13:44:36;8.20;99.90
43249;DHT22;29216;51.248;6.808;2022-11-30T13:47:14;8.10;99.90
43249;DHT22;29216;51.248;6.808;2022-11-30T13:49:41;8.10;99.90
43249;DHT22;29216;51.248;6.808;2022-11-30T13:52:11;8.00;99.90
43249;DHT22;29216;51.248;6.808;2022-11-30T13:54:48;8.00;99.90
43249;DHT22;29216;51.248;6.808;2022-11-30T14:00:04;8.10;99.90
43249;DHT22;29216;51.248;6.808;2022-11-30T14:02:51;8.20;99.90
43249;DHT22;29216;51.248;6.808;2022-11-30T14:05:35;8.20;99.90
43249;DHT22;29216;51.248;6.808;2022-11-30T14:13:03;8.00;99.90
43249;DHT22;29216;51.248;6.808;2022-11-30T14:25:52;7.80;99.90
43249;DHT22;29216;51.248;6.808;2022-11-30T14:28:23;7.90;99.90
43249;DHT22;29216;51.248;6.808;2022-11-30T14:30:50;7.90;99.90
43249;DHT22;29216;51.248;6.808;2022-11-30T14:33:30;7.80;99.90
43249;DHT22;29216;51.248;6.808;2022-11-30T14:35:59;7.90;99.90
43249;DHT22;29216;51.248;6.808;2022-11-30T14:38:26;7.90;99.90
43249;DHT22;29216;51.248;6.808;2022-11-30T14:40:54;7.90;99.90
43249;DHT22;29216;51.248;6.808;2022-11-30T14:43:19;7.90;99.90
43249;DHT22;29216;51.248;6.808;2022-11-30T14:46:04;7.90;99.90
43249;DHT22;29216;51.248;6.808;2022-11-30T14:48:31;7.90;99.90
43249;DHT22;29216;51.248;6.808;2022-11-30T14:51:01;7.90;99.90
43249;DHT22;29216;51.248;6.808;2022-11-30T14:53:54;7.90;99.90
43249;DHT22;29216;51.248;6.808;2022-11-30T15:02:01;7.80;99.90
43249;DHT22;29216;51.248;6.808;2022-11-30T15:04:28;7.80;99.90
43249;DHT22;29216;51.248;6.808;2022-11-30T15:06:56;7.70;99.90
43249;DHT22;29216;51.248;6.808;2022-11-30T15:09:27;7.70;99.90
43249;DHT22;29216;51.248;6.808;2022-11-30T15:11:54;7.70;99.90
43249;DHT22;29216;51.248;6.808;2022-11-30T15:14:21;7.70;99.90
43249;DHT22;29216;51.248;6.808;2022-11-30T15:16:52;7.60;99.90
43249;DHT22;29216;51.248;6.808;2022-11-30T15:19:28;7.60;99.90
43249;DHT22;29216;51.248;6.808;2022-11-30T15:21:55;7.60;99.90
43249;DHT22;29216;51.248;6.808;2022-11-30T15:24:21;7.60;99.90
43249;DHT22;29216;51.248;6.808;2022-11-30T15:27:01;7.60;99.90
43249;DHT22;29216;51.248;6.808;2022-11-30T15:29:32;7.60;99.90
43249;DHT22;29216;51.248;6.808;2022-11-30T15:32:01;7.50;99.90
43249;DHT22;29216;51.248;6.808;2022-11-30T15:36:57;7.50;99.90
43249;DHT22;29216;51.248;6.808;2022-11-30T15:39:25;7.50;99.90
43249;DHT22;29216;51.248;6.808;2022-11-30T15:41:59;7.50;99.90
43249;DHT22;29216;51.248;6.808;2022-11-30T15:44:44;7.50;99.90
43249;DHT22;29216;51.248;6.808;2022-11-30T15:49:54;7.40;99.90
43249;DHT22;29216;51.248;6.808;2022-11-30T15:52:25;7.40;99.90
43249;DHT22;29216;51.248;6.808;2022-11-30T15:57:23;7.50;99.90
43249;DHT22;29216;51.248;6.808;2022-11-30T16:02:37;7.50;99.90
43249;DHT22;29216;51.248;6.808;2022-11-30T16:05:22;7.50;99.90
43249;DHT22;29216;51.248;6.808;2022-11-30T16:07:54;7.60;99.90
43249;DHT22;29216;51.248;6.808;2022-11-30T16:12:51;7.60;99.90
43249;DHT22;29216;51.248;6.808;2022-11-30T16:15:52;7.60;99.90
43249;DHT22;29216;51.248;6.808;2022-11-30T16:18:25;7.60;99.90
43249;DHT22;29216;51.248;6.808;2022-11-30T16:20:57;7.60;99.90
43249;DHT22;29216;51.248;6.808;2022-11-30T16:23:23;7.60;99.90
43249;DHT22;29216;51.248;6.808;2022-11-30T16:25:50;7.60;99.90
43249;DHT22;29216;51.248;6.808;2022-11-30T16:28:17;7.50;99.90
43249;DHT22;29216;51.248;6.808;2022-11-30T16:30:44;7.60;99.90
43249;DHT22;29216;51.248;6.808;2022-11-30T16:33:21;7.50;99.90
43249;DHT22;29216;51.248;6.808;2022-11-30T16:35:59;7.50;99.90
43249;DHT22;29216;51.248;6.808;2022-11-30T16:38:25;7.50;99.90
43249;DHT22;29216;51.248;6.808;2022-11-30T16:40:52;7.50;99.90
43249;DHT22;29216;51.248;6.808;2022-11-30T16:43:19;7.50;99.90
43249;DHT22;29216;51.248;6.808;2022-11-30T16:45:46;7.50;99.90
43249;DHT22;29216;51.248;6.808;2022-11-30T16:48:17;7.50;99.90
43249;DHT22;29216;51.248;6.808;2022-11-30T16:51:03;7.50;99.90
43249;DHT22;29216;51.248;6.808;2022-11-30T16:53:31;7.50;99.90
43249;DHT22;29216;51.248;6.808;2022-11-30T16:56:11;7.50;99.90
43249;DHT22;29216;51.248;6.808;2022-11-30T16:58:37;7.50;99.90
43249;DHT22;29216;51.248;6.808;2022-11-30T17:01:04;7.50;99.90
43249;DHT22;29216;51.248;6.808;2022-11-30T17:03:32;7.60;99.90
43249;DHT22;29216;51.248;6.808;2022-11-30T17:06:02;7.70;99.90
43249;DHT22;29216;51.248;6.808;2022-11-30T17:08:37;7.70;99.90
43249;DHT22;29216;51.248;6.808;2022-11-30T17:11:30;7.60;99.90
43249;DHT22;29216;51.248;6.808;2022-11-30T17:14:19;7.50;99.90
43249;DHT22;29216;51.248;6.808;2022-11-30T17:16:53;7.60;99.90
43249;DHT22;29216;51.248;6.808;2022-11-30T17:19:25;7.60;99.90
43249;DHT22;29216;51.248;6.808;2022-11-30T17:21:56;7.60;99.90
43249;DHT22;29216;51.248;6.808;2022-11-30T17:24:37;7.70;99.90
43249;DHT22;29216;51.248;6.808;2022-11-30T17:27:02;7.60;99.90
43249;DHT22;29216;51.248;6.808;2022-11-30T17:29:35;7.60;99.90
43249;DHT22;29216;51.248;6.808;2022-11-30T17:32:03;7.70;99.90
43249;DHT22;29216;51.248;6.808;2022-11-30T17:34:29;7.70;99.90
43249;DHT22;29216;51.248;6.808;2022-11-30T17:36:57;7.70;99.90
43249;DHT22;29216;51.248;6.808;2022-11-30T17:39:23;7.60;99.90
43249;DHT22;29216;51.248;6.808;2022-11-30T17:41:49;7.60;99.90
43249;DHT22;29216;51.248;6.808;2022-11-30T17:44:15;7.70;99.90
43249;DHT22;29216;51.248;6.808;2022-11-30T17:46:41;7.60;99.90
43249;DHT22;29216;51.248;6.808;2022-11-30T17:49:09;7.60;99.90
43249;DHT22;29216;51.248;6.808;2022-11-30T17:51:35;7.50;99.90
43249;DHT22;29216;51.248;6.808;2022-11-30T17:54:03;7.50;99.90
43249;DHT22;29216;51.248;6.808;2022-11-30T17:56:30;7.60;99.90
43249;DHT22;29216;51.248;6.808;2022-11-30T17:59:16;7.60;99.90
43249;DHT22;29216;51.248;6.808;2022-11-30T18:01:48;7.60;99.90
43249;DHT22;29216;51.248;6.808;2022-11-30T18:04:34;7.60;99.90
43249;DHT22;29216;51.248;6.808;2022-11-30T18:07:09;7.60;99.90
43249;DHT22;29216;51.248;6.808;2022-11-30T18:16:53;7.60;99.90
43249;DHT22;29216;51.248;6.808;2022-11-30T18:19:25;7.60;99.90
43249;DHT22;29216;51.248;6.808;2022-11-30T18:21:51;7.60;99.90
43249;DHT22;29216;51.248;6.808;2022-11-30T18:24:34;7.70;99.90
43249;DHT22;29216;51.248;6.808;2022-11-30T18:27:00;7.70;99.90
43249;DHT22;29216;51.248;6.808;2022-11-30T18:29:26;7.60;99.90
43249;DHT22;29216;51.248;6.808;2022-11-30T18:31:52;7.60;99.90
43249;DHT22;29216;51.248;6.808;2022-11-30T18:34:21;7.60;99.90